sensor_id;sensor_type;location;lat;lon;timestamp;temperature;humidity
31207;DHT22;17834;52.992;8.856;2024-03-02T00:01:58;5.50;99.90
31207;DHT22;17834;52.992;8.856;2024-03-02T00:04:24;5.50;99.90
31207;DHT22;17834;52.992;8.856;2024-03-02T00:06:54;5.40;99.90
31207;DHT22;17834;52.992;8.856;2024-03-02T00:09:20;5.40;99.90
31207;DHT22;17834;52.992;8.856;2024-03-02T00:11:46;5.40;99.90
31207;DHT22;17834;52.992;8.856;2024-03-02T00:14:12;5.40;99.90
31207;DHT22;17834;52.992;8.856;2024-03-02T00:16:37;5.40;99.90
31207;DHT22;17834;52.992;8.856;2024-03-02T00:19:03;5.40;99.90
31207;DHT22;17834;52.992;8.856;2024-03-02T00:21:31;5.40;99.90
31207;DHT22;17834;52.992;8.856;2024-03-02T00:23:57;5.40;99.90
31207;DHT22;17834;52.992;8.856;2024-03-02T00:26:22;5.40;99.90
31207;DHT22;17834;52.992;8.856;2024-03-02T00:28:48;5.40;99.90
31207;DHT22;17834;52.992;8.856;2024-03-02T00:31:16;5.40;99.90
31207;DHT22;17834;52.992;8.856;2024-03-02T00:33:44;5.40;99.90
31207;DHT22;17834;52.992;8.856;2024-03-02T00:36:29;5.40;99.90
31207;DHT22;17834;52.992;8.856;2024-03-02T00:38:55;5.50;99.90
31207;DHT22;17834;52.992;8.856;2024-03-02T00:41:29;5.50;99.90
31207;DHT22;17834;52.992;8.856;2024-03-02T00:43:58;5.50;99.90
31207;DHT22;17834;52.992;8.856;2024-03-02T00:46:24;5.50;99.90
31207;DHT22;17834;52.992;8.856;2024-03-02T00:48:57;5.50;99.90
31207;DHT22;17834;52.992;8.856;2024-03-02T00:51:25;5.50;99.90
31207;DHT22;17834;52.992;8.856;2024-03-02T00:53:53;5.50;99.90
31207;DHT22;17834;52.992;8.856;2024-03-02T00:56:21;5.50;99.90
31207;DHT22;17834;52.992;8.856;2024-03-02T00:58:47;5.50;99.90
31207;DHT22;17834;52.992;8.856;2024-03-02T01:01:13;5.40;99.90
31207;DHT22;17834;52.992;8.856;2024-03-02T01:03:39;5.40;99.90
31207;DHT22;17834;52.992;8.856;2024-03-02T01:06:05;5.40;99.90
31207;DHT22;17834;52.992;8.856;2024-03-02T01:08:30;5.30;99.90
31207;DHT22;17834;52.992;8.856;2024-03-02T01:10:56;5.30;99.90
31207;DHT22;17834;52.992;8.856;2024-03-02T01:13:22;5.30;99.90
31207;DHT22;17834;52.992;8.856;2024-03-02T01:15:48;5.30;99.90
31207;DHT22;17834;52.992;8.856;2024-03-02T01:18:14;5.20;99.90
31207;DHT22;17834;52.992;8.856;2024-03-02T01:20:39;5.20;99.90
31207;DHT22;17834;52.992;8.856;2024-03-02T01:23:05;5.20;99.90
31207;DHT22;17834;52.992;8.856;2024-03-02T01:25:30;5.20;99.90
31207;DHT22;17834;52.992;8.856;2024-03-02T01:27:56;5.20;99.90
31207;DHT22;17834;52.992;8.856;2024-03-02T01:30:21;5.20;99.90
31207;DHT22;17834;52.992;8.856;2024-03-02T01:32:47;5.20;99.90
31207;DHT22;17834;52.992;8.856;2024-03-02T01:35:12;5.20;99.90
31207;DHT22;17834;52.992;8.856;2024-03-02T01:37:38;5.20;99.90
31207;DHT22;17834;52.992;8.856;2024-03-02T01:40:04;5.20;99.90
31207;DHT22;17834;52.992;8.856;2024-03-02T01:42:35;5.20;99.90
31207;DHT22;17834;52.992;8.856;2024-03-02T01:45:01;5.20;99.90
31207;DHT22;17834;52.992;8.856;2024-03-02T01:47:27;5.20;99.90
31207;DHT22;17834;52.992;8.856;2024-03-02T01:49:52;5.20;99.90
31207;DHT22;17834;52.992;8.856;2024-03-02T01:52:18;5.20;99.90
31207;DHT22;17834;52.992;8.856;2024-03-02T01:54:43;5.20;99.90
31207;DHT22;17834;52.992;8.856;2024-03-02T01:57:09;5.20;99.90
31207;DHT22;17834;52.992;8.856;2024-03-02T01:59:35;5.10;99.90
31207;DHT22;17834;52.992;8.856;2024-03-02T02:02:00;5.20;99.90
31207;DHT22;17834;52.992;8.856;2024-03-02T02:04:26;5.10;99.90
31207;DHT22;17834;52.992;8.856;2024-03-02T02:06:53;5.10;99.90
31207;DHT22;17834;52.992;8.856;2024-03-02T02:09:19;5.10;99.90
31207;DHT22;17834;52.992;8.856;2024-03-02T02:11:45;5.00;99.90
31207;DHT22;17834;52.992;8.856;2024-03-02T02:14:10;4.90;99.90
31207;DHT22;17834;52.992;8.856;2024-03-02T02:16:36;4.90;99.90
31207;DHT22;17834;52.992;8.856;2024-03-02T02:19:02;4.90;99.90
31207;DHT22;17834;52.992;8.856;2024-03-02T02:21:28;4.90;99.90
31207;DHT22;17834;52.992;8.856;2024-03-02T02:23:53;4.80;99.90
31207;DHT22;17834;52.992;8.856;2024-03-02T02:26:19;4.80;99.90
31207;DHT22;17834;52.992;8.856;2024-03-02T02:28:44;4.80;99.90
31207;DHT22;17834;52.992;8.856;2024-03-02T02:31:15;4.70;99.90
31207;DHT22;17834;52.992;8.856;2024-03-02T02:33:41;4.70;99.90
31207;DHT22;17834;52.992;8.856;2024-03-02T02:36:07;4.60;99.90
31207;DHT22;17834;52.992;8.856;2024-03-02T02:38:33;4.60;99.90
31207;DHT22;17834;52.992;8.856;2024-03-02T02:41:02;4.60;99.90
31207;DHT22;17834;52.992;8.856;2024-03-02T02:43:27;4.50;99.90
31207;DHT22;17834;52.992;8.856;2024-03-02T02:45:53;4.50;99.90
31207;DHT22;17834;52.992;8.856;2024-03-02T02:48:18;4.50;99.90
31207;DHT22;17834;52.992;8.856;2024-03-02T02:50:44;4.50;99.90
31207;DHT22;17834;52.992;8.856;2024-03-02T02:53:09;4.50;99.90
31207;DHT22;17834;52.992;8.856;2024-03-02T02:55:35;4.40;99.90
31207;DHT22;17834;52.992;8.856;2024-03-02T02:58:06;4.40;99.90
31207;DHT22;17834;52.992;8.856;2024-03-02T03:00:31;4.40;99.90
31207;DHT22;17834;52.992;8.856;2024-03-02T03:02:57;4.40;99.90
31207;DHT22;17834;52.992;8.856;2024-03-02T03:05:22;4.40;99.90
31207;DHT22;17834;52.992;8.856;2024-03-02T03:07:48;4.40;99.90
31207;DHT22;17834;52.992;8.856;2024-03-02T03:10:16;4.30;99.90
31207;DHT22;17834;52.992;8.856;2024-03-02T03:12:42;4.30;99.90
31207;DHT22;17834;52.992;8.856;2024-03-02T03:15:10;4.30;99.90
31207;DHT22;17834;52.992;8.856;2024-03-02T03:17:36;4.30;99.90
31207;DHT22;17834;52.992;8.856;2024-03-02T03:20:03;4.40;99.90
31207;DHT22;17834;52.992;8.856;2024-03-02T03:22:29;4.40;99.90
31207;DHT22;17834;52.992;8.856;2024-03-02T03:24:55;4.30;99.90
31207;DHT22;17834;52.992;8.856;2024-03-02T03:27:21;4.30;99.90
31207;DHT22;17834;52.992;8.856;2024-03-02T03:29:47;4.30;99.90
31207;DHT22;17834;52.992;8.856;2024-03-02T03:32:12;4.30;99.90
31207;DHT22;17834;52.992;8.856;2024-03-02T03:34:37;4.30;99.90
31207;DHT22;17834;52.992;8.856;2024-03-02T03:37:03;4.40;99.90
31207;DHT22;17834;52.992;8.856;2024-03-02T03:39:29;4.40;99.90
31207;DHT22;17834;52.992;8.856;2024-03-02T03:41:54;4.40;99.90
31207;DHT22;17834;52.992;8.856;2024-03-02T03:44:20;4.40;99.90
31207;DHT22;17834;52.992;8.856;2024-03-02T03:46:45;4.40;99.90
31207;DHT22;17834;52.992;8.856;2024-03-02T03:49:11;4.40;99.90
31207;DHT22;17834;52.992;8.856;2024-03-02T03:51:36;4.40;99.90
31207;DHT22;17834;52.992;8.856;2024-03-02T03:54:02;4.40;99.90
31207;DHT22;17834;52.992;8.856;2024-03-02T03:56:27;4.40;99.90
31207;DHT22;17834;52.992;8.856;2024-03-02T03:58:53;4.40;99.90
31207;DHT22;17834;52.992;8.856;2024-03-02T04:01:18;4.40;99.90
31207;DHT22;17834;52.992;8.856;2024-03-02T04:03:44;4.40;99.90
31207;DHT22;17834;52.992;8.856;2024-03-02T04:06:10;4.40;99.90
31207;DHT22;17834;52.992;8.856;2024-03-02T04:08:35;4.40;99.90
31207;DHT22;17834;52.992;8.856;2024-03-02T04:11:01;4.40;99.90
31207;DHT22;17834;52.992;8.856;2024-03-02T04:13:28;4.40;99.90
31207;DHT22;17834;52.992;8.856;2024-03-02T04:15:53;4.50;99.90
31207;DHT22;17834;52.992;8.856;2024-03-02T04:18:19;4.50;99.90
31207;DHT22;17834;52.992;8.856;2024-03-02T04:20:44;4.50;99.90
31207;DHT22;17834;52.992;8.856;2024-03-02T04:23:10;4.60;99.90
31207;DHT22;17834;52.992;8.856;2024-03-02T04:25:35;4.60;99.90
31207;DHT22;17834;52.992;8.856;2024-03-02T04:28:01;4.60;99.90
31207;DHT22;17834;52.992;8.856;2024-03-02T04:30:27;4.60;99.90
31207;DHT22;17834;52.992;8.856;2024-03-02T04:32:52;4.60;99.90
31207;DHT22;17834;52.992;8.856;2024-03-02T04:35:17;4.60;99.90
31207;DHT22;17834;52.992;8.856;2024-03-02T04:37:43;4.60;99.90
31207;DHT22;17834;52.992;8.856;2024-03-02T04:40:09;4.60;99.90
31207;DHT22;17834;52.992;8.856;2024-03-02T04:42:35;4.70;99.90
31207;DHT22;17834;52.992;8.856;2024-03-02T04:45:01;4.70;99.90
31207;DHT22;17834;52.992;8.856;2024-03-02T04:47:26;4.70;99.90
31207;DHT22;17834;52.992;8.856;2024-03-02T04:49:52;4.60;99.90
31207;DHT22;17834;52.992;8.856;2024-03-02T04:52:18;4.60;99.90
31207;DHT22;17834;52.992;8.856;2024-03-02T04:54:44;4.50;99.90
31207;DHT22;17834;52.992;8.856;2024-03-02T04:57:28;4.50;99.90
31207;DHT22;17834;52.992;8.856;2024-03-02T04:59:54;4.50;99.90
31207;DHT22;17834;52.992;8.856;2024-03-02T05:02:19;4.50;99.90
31207;DHT22;17834;52.992;8.856;2024-03-02T05:04:44;4.60;99.90
31207;DHT22;17834;52.992;8.856;2024-03-02T05:07:10;4.60;99.90
31207;DHT22;17834;52.992;8.856;2024-03-02T05:09:35;4.60;99.90
31207;DHT22;17834;52.992;8.856;2024-03-02T05:12:01;4.60;99.90
31207;DHT22;17834;52.992;8.856;2024-03-02T05:14:46;4.60;99.90
31207;DHT22;17834;52.992;8.856;2024-03-02T05:17:11;4.50;99.90
31207;DHT22;17834;52.992;8.856;2024-03-02T05:19:37;4.50;99.90
31207;DHT22;17834;52.992;8.856;2024-03-02T05:22:02;4.50;99.90
31207;DHT22;17834;52.992;8.856;2024-03-02T05:24:28;4.60;99.90
31207;DHT22;17834;52.992;8.856;2024-03-02T05:26:54;4.60;99.90
31207;DHT22;17834;52.992;8.856;2024-03-02T05:29:19;4.50;99.90
31207;DHT22;17834;52.992;8.856;2024-03-02T05:31:45;4.50;99.90
31207;DHT22;17834;52.992;8.856;2024-03-02T05:34:11;4.50;99.90
31207;DHT22;17834;52.992;8.856;2024-03-02T05:36:36;4.50;99.90
31207;DHT22;17834;52.992;8.856;2024-03-02T05:39:04;4.50;99.90
31207;DHT22;17834;52.992;8.856;2024-03-02T05:41:31;4.50;99.90
31207;DHT22;17834;52.992;8.856;2024-03-02T05:43:57;4.50;99.90
31207;DHT22;17834;52.992;8.856;2024-03-02T05:46:22;4.50;99.90
31207;DHT22;17834;52.992;8.856;2024-03-02T05:48:47;4.40;99.90
31207;DHT22;17834;52.992;8.856;2024-03-02T05:51:13;4.40;99.90
31207;DHT22;17834;52.992;8.856;2024-03-02T05:53:38;4.40;99.90
31207;DHT22;17834;52.992;8.856;2024-03-02T05:56:05;4.40;99.90
31207;DHT22;17834;52.992;8.856;2024-03-02T05:58:30;4.40;99.90
31207;DHT22;17834;52.992;8.856;2024-03-02T06:01:23;4.40;99.90
31207;DHT22;17834;52.992;8.856;2024-03-02T06:03:56;4.40;99.90
31207;DHT22;17834;52.992;8.856;2024-03-02T06:06:22;4.40;99.90
31207;DHT22;17834;52.992;8.856;2024-03-02T06:08:48;4.40;99.90
31207;DHT22;17834;52.992;8.856;2024-03-02T06:11:14;4.40;99.90
31207;DHT22;17834;52.992;8.856;2024-03-02T06:13:39;4.40;99.90
31207;DHT22;17834;52.992;8.856;2024-03-02T06:16:05;4.40;99.90
31207;DHT22;17834;52.992;8.856;2024-03-02T06:18:30;4.40;99.90
31207;DHT22;17834;52.992;8.856;2024-03-02T06:20:56;4.40;99.90
31207;DHT22;17834;52.992;8.856;2024-03-02T06:23:21;4.40;99.90
31207;DHT22;17834;52.992;8.856;2024-03-02T06:25:47;4.50;99.90
31207;DHT22;17834;52.992;8.856;2024-03-02T06:28:12;4.50;99.90
31207;DHT22;17834;52.992;8.856;2024-03-02T06:30:41;4.50;99.90
31207;DHT22;17834;52.992;8.856;2024-03-02T06:33:06;4.60;99.90
31207;DHT22;17834;52.992;8.856;2024-03-02T06:35:32;4.60;99.90
31207;DHT22;17834;52.992;8.856;2024-03-02T06:37:57;4.70;99.90
31207;DHT22;17834;52.992;8.856;2024-03-02T06:40:22;4.70;99.90
31207;DHT22;17834;52.992;8.856;2024-03-02T06:42:48;4.70;99.90
31207;DHT22;17834;52.992;8.856;2024-03-02T06:45:13;4.80;99.90
31207;DHT22;17834;52.992;8.856;2024-03-02T06:47:39;4.90;99.90
31207;DHT22;17834;52.992;8.856;2024-03-02T06:50:05;5.00;99.90
31207;DHT22;17834;52.992;8.856;2024-03-02T06:52:32;5.00;99.90
31207;DHT22;17834;52.992;8.856;2024-03-02T06:54:57;5.10;99.90
31207;DHT22;17834;52.992;8.856;2024-03-02T06:57:23;5.20;99.90
31207;DHT22;17834;52.992;8.856;2024-03-02T06:59:50;5.30;99.90
31207;DHT22;17834;52.992;8.856;2024-03-02T07:02:16;5.40;99.90
31207;DHT22;17834;52.992;8.856;2024-03-02T07:04:42;5.50;99.90
31207;DHT22;17834;52.992;8.856;2024-03-02T07:07:08;5.60;99.90
31207;DHT22;17834;52.992;8.856;2024-03-02T07:09:33;5.60;99.90
31207;DHT22;17834;52.992;8.856;2024-03-02T07:11:59;5.70;99.90
31207;DHT22;17834;52.992;8.856;2024-03-02T07:14:24;5.90;99.90
31207;DHT22;17834;52.992;8.856;2024-03-02T07:17:12;5.90;99.90
31207;DHT22;17834;52.992;8.856;2024-03-02T07:19:38;6.10;99.90
31207;DHT22;17834;52.992;8.856;2024-03-02T07:22:07;6.20;99.90
31207;DHT22;17834;52.992;8.856;2024-03-02T07:24:43;6.30;99.90
31207;DHT22;17834;52.992;8.856;2024-03-02T07:27:09;6.40;99.90
31207;DHT22;17834;52.992;8.856;2024-03-02T07:29:36;6.50;99.90
31207;DHT22;17834;52.992;8.856;2024-03-02T07:32:01;6.60;99.90
31207;DHT22;17834;52.992;8.856;2024-03-02T07:34:27;6.60;99.90
31207;DHT22;17834;52.992;8.856;2024-03-02T07:36:53;6.70;99.90
31207;DHT22;17834;52.992;8.856;2024-03-02T07:39:18;6.80;99.90
31207;DHT22;17834;52.992;8.856;2024-03-02T07:41:45;6.90;99.90
31207;DHT22;17834;52.992;8.856;2024-03-02T07:44:11;7.00;99.90
31207;DHT22;17834;52.992;8.856;2024-03-02T07:46:40;7.10;99.90
31207;DHT22;17834;52.992;8.856;2024-03-02T07:49:06;7.20;99.90
31207;DHT22;17834;52.992;8.856;2024-03-02T07:51:31;7.30;99.90
31207;DHT22;17834;52.992;8.856;2024-03-02T07:53:56;7.30;99.90
31207;DHT22;17834;52.992;8.856;2024-03-02T07:56:22;7.40;99.90
31207;DHT22;17834;52.992;8.856;2024-03-02T07:58:48;7.50;99.90
31207;DHT22;17834;52.992;8.856;2024-03-02T08:01:14;7.50;99.90
31207;DHT22;17834;52.992;8.856;2024-03-02T08:03:40;7.50;99.90
31207;DHT22;17834;52.992;8.856;2024-03-02T08:06:06;7.60;99.90
31207;DHT22;17834;52.992;8.856;2024-03-02T08:08:31;7.60;99.90
31207;DHT22;17834;52.992;8.856;2024-03-02T08:10:57;7.60;99.90
31207;DHT22;17834;52.992;8.856;2024-03-02T08:13:22;7.70;99.90
31207;DHT22;17834;52.992;8.856;2024-03-02T08:15:48;7.70;99.90
31207;DHT22;17834;52.992;8.856;2024-03-02T08:18:14;7.80;99.90
31207;DHT22;17834;52.992;8.856;2024-03-02T08:20:40;7.80;99.90
31207;DHT22;17834;52.992;8.856;2024-03-02T08:23:06;7.90;99.90
31207;DHT22;17834;52.992;8.856;2024-03-02T08:25:32;7.90;99.90
31207;DHT22;17834;52.992;8.856;2024-03-02T08:27:58;8.00;99.90
31207;DHT22;17834;52.992;8.856;2024-03-02T08:30:24;8.00;99.90
31207;DHT22;17834;52.992;8.856;2024-03-02T08:32:49;8.00;99.90
31207;DHT22;17834;52.992;8.856;2024-03-02T08:35:14;8.10;99.90
31207;DHT22;17834;52.992;8.856;2024-03-02T08:37:41;8.10;99.90
31207;DHT22;17834;52.992;8.856;2024-03-02T08:40:08;8.10;99.90
31207;DHT22;17834;52.992;8.856;2024-03-02T08:42:33;8.10;99.90
31207;DHT22;17834;52.992;8.856;2024-03-02T08:45:00;8.10;99.90
31207;DHT22;17834;52.992;8.856;2024-03-02T08:47:26;8.20;99.90
31207;DHT22;17834;52.992;8.856;2024-03-02T08:49:52;8.30;99.90
31207;DHT22;17834;52.992;8.856;2024-03-02T08:52:18;8.30;99.90
31207;DHT22;17834;52.992;8.856;2024-03-02T08:54:44;8.50;99.90
31207;DHT22;17834;52.992;8.856;2024-03-02T08:57:09;8.60;99.90
31207;DHT22;17834;52.992;8.856;2024-03-02T08:59:35;8.70;99.90
31207;DHT22;17834;52.992;8.856;2024-03-02T09:02:00;8.80;99.90
31207;DHT22;17834;52.992;8.856;2024-03-02T09:04:26;8.90;99.90
31207;DHT22;17834;52.992;8.856;2024-03-02T09:06:52;9.10;99.90
31207;DHT22;17834;52.992;8.856;2024-03-02T09:09:18;9.20;99.90
31207;DHT22;17834;52.992;8.856;2024-03-02T09:11:44;9.30;99.90
31207;DHT22;17834;52.992;8.856;2024-03-02T09:14:10;9.50;99.90
31207;DHT22;17834;52.992;8.856;2024-03-02T09:16:36;9.60;99.90
31207;DHT22;17834;52.992;8.856;2024-03-02T09:19:02;9.70;99.90
31207;DHT22;17834;52.992;8.856;2024-03-02T09:21:27;9.80;99.90
31207;DHT22;17834;52.992;8.856;2024-03-02T09:23:55;9.90;99.90
31207;DHT22;17834;52.992;8.856;2024-03-02T09:26:20;10.00;99.90
31207;DHT22;17834;52.992;8.856;2024-03-02T09:28:46;10.10;99.90
31207;DHT22;17834;52.992;8.856;2024-03-02T09:31:11;10.20;99.90
31207;DHT22;17834;52.992;8.856;2024-03-02T09:33:37;10.30;99.90
31207;DHT22;17834;52.992;8.856;2024-03-02T09:36:04;10.30;99.90
31207;DHT22;17834;52.992;8.856;2024-03-02T09:38:32;10.40;99.90
31207;DHT22;17834;52.992;8.856;2024-03-02T09:41:00;10.40;99.90
31207;DHT22;17834;52.992;8.856;2024-03-02T09:43:26;10.50;99.90
31207;DHT22;17834;52.992;8.856;2024-03-02T09:45:52;10.60;99.90
31207;DHT22;17834;52.992;8.856;2024-03-02T09:48:18;10.70;99.90
31207;DHT22;17834;52.992;8.856;2024-03-02T09:50:46;10.80;99.90
31207;DHT22;17834;52.992;8.856;2024-03-02T09:53:22;10.90;99.90
31207;DHT22;17834;52.992;8.856;2024-03-02T09:55:48;10.90;99.90
31207;DHT22;17834;52.992;8.856;2024-03-02T09:58:14;11.00;99.90
31207;DHT22;17834;52.992;8.856;2024-03-02T10:00:39;11.10;99.90
31207;DHT22;17834;52.992;8.856;2024-03-02T10:03:05;11.20;99.90
31207;DHT22;17834;52.992;8.856;2024-03-02T10:05:30;11.30;99.90
31207;DHT22;17834;52.992;8.856;2024-03-02T10:08:01;11.40;99.90
31207;DHT22;17834;52.992;8.856;2024-03-02T10:10:37;11.50;99.90
31207;DHT22;17834;52.992;8.856;2024-03-02T10:13:12;11.60;99.90
31207;DHT22;17834;52.992;8.856;2024-03-02T10:15:38;11.70;99.90
31207;DHT22;17834;52.992;8.856;2024-03-02T10:18:08;11.80;99.90
31207;DHT22;17834;52.992;8.856;2024-03-02T10:20:35;11.90;99.90
31207;DHT22;17834;52.992;8.856;2024-03-02T10:23:18;12.00;99.90
31207;DHT22;17834;52.992;8.856;2024-03-02T10:25:44;12.00;99.90
31207;DHT22;17834;52.992;8.856;2024-03-02T10:28:10;12.10;99.90
31207;DHT22;17834;52.992;8.856;2024-03-02T10:30:36;12.20;99.90
31207;DHT22;17834;52.992;8.856;2024-03-02T10:33:02;12.20;99.90
31207;DHT22;17834;52.992;8.856;2024-03-02T10:35:28;12.30;99.90
31207;DHT22;17834;52.992;8.856;2024-03-02T10:37:58;12.40;99.90
31207;DHT22;17834;52.992;8.856;2024-03-02T10:40:24;12.50;99.90
31207;DHT22;17834;52.992;8.856;2024-03-02T10:42:50;12.60;99.90
31207;DHT22;17834;52.992;8.856;2024-03-02T10:45:17;12.60;99.90
31207;DHT22;17834;52.992;8.856;2024-03-02T10:47:44;12.70;99.90
31207;DHT22;17834;52.992;8.856;2024-03-02T10:50:12;12.70;99.90
31207;DHT22;17834;52.992;8.856;2024-03-02T10:52:38;12.80;99.90
31207;DHT22;17834;52.992;8.856;2024-03-02T10:55:05;12.90;99.90
31207;DHT22;17834;52.992;8.856;2024-03-02T11:00:06;13.10;99.90
31207;DHT22;17834;52.992;8.856;2024-03-02T11:02:35;13.30;99.90
31207;DHT22;17834;52.992;8.856;2024-03-02T11:05:06;13.30;99.90
31207;DHT22;17834;52.992;8.856;2024-03-02T11:07:33;13.30;99.90
31207;DHT22;17834;52.992;8.856;2024-03-02T11:10:01;13.40;99.90
31207;DHT22;17834;52.992;8.856;2024-03-02T11:12:36;13.40;99.90
31207;DHT22;17834;52.992;8.856;2024-03-02T11:15:07;13.50;99.90
31207;DHT22;17834;52.992;8.856;2024-03-02T11:17:34;13.50;99.90
31207;DHT22;17834;52.992;8.856;2024-03-02T11:20:00;13.60;99.90
31207;DHT22;17834;52.992;8.856;2024-03-02T11:22:26;13.60;99.90
31207;DHT22;17834;52.992;8.856;2024-03-02T11:24:52;13.70;99.90
31207;DHT22;17834;52.992;8.856;2024-03-02T11:33:00;13.80;99.90
31207;DHT22;17834;52.992;8.856;2024-03-02T11:35:26;13.70;99.90
31207;DHT22;17834;52.992;8.856;2024-03-02T11:37:53;13.70;99.90
31207;DHT22;17834;52.992;8.856;2024-03-02T11:40:22;13.60;99.90
31207;DHT22;17834;52.992;8.856;2024-03-02T11:42:48;13.60;99.90
31207;DHT22;17834;52.992;8.856;2024-03-02T11:45:16;13.60;99.90
31207;DHT22;17834;52.992;8.856;2024-03-02T11:47:46;13.70;99.90
31207;DHT22;17834;52.992;8.856;2024-03-02T11:50:15;13.80;99.90
31207;DHT22;17834;52.992;8.856;2024-03-02T11:52:42;13.80;99.90
31207;DHT22;17834;52.992;8.856;2024-03-02T11:55:08;13.80;99.90
31207;DHT22;17834;52.992;8.856;2024-03-02T11:57:35;13.80;99.90
31207;DHT22;17834;52.992;8.856;2024-03-02T12:00:00;13.70;99.90
31207;DHT22;17834;52.992;8.856;2024-03-02T12:02:29;13.70;99.90
31207;DHT22;17834;52.992;8.856;2024-03-02T12:04:54;13.60;99.90
31207;DHT22;17834;52.992;8.856;2024-03-02T12:07:23;13.50;99.90
31207;DHT22;17834;52.992;8.856;2024-03-02T12:09:49;13.60;99.90
31207;DHT22;17834;52.992;8.856;2024-03-02T12:12:24;13.60;99.90
31207;DHT22;17834;52.992;8.856;2024-03-02T12:14:51;13.60;99.90
31207;DHT22;17834;52.992;8.856;2024-03-02T12:17:17;13.60;99.90
31207;DHT22;17834;52.992;8.856;2024-03-02T12:19:43;13.60;99.90
31207;DHT22;17834;52.992;8.856;2024-03-02T12:22:08;13.70;99.90
31207;DHT22;17834;52.992;8.856;2024-03-02T12:24:34;13.60;99.90
31207;DHT22;17834;52.992;8.856;2024-03-02T12:26:59;13.60;99.90
31207;DHT22;17834;52.992;8.856;2024-03-02T12:29:26;13.60;99.90
31207;DHT22;17834;52.992;8.856;2024-03-02T12:31:52;13.50;99.90
31207;DHT22;17834;52.992;8.856;2024-03-02T12:34:18;13.50;99.90
31207;DHT22;17834;52.992;8.856;2024-03-02T12:36:46;13.50;99.90
31207;DHT22;17834;52.992;8.856;2024-03-02T12:39:17;13.50;99.90
31207;DHT22;17834;52.992;8.856;2024-03-02T12:41:43;13.50;99.90
31207;DHT22;17834;52.992;8.856;2024-03-02T12:44:09;13.40;99.90
31207;DHT22;17834;52.992;8.856;2024-03-02T12:46:34;13.50;99.90
31207;DHT22;17834;52.992;8.856;2024-03-02T12:49:09;13.50;99.90
31207;DHT22;17834;52.992;8.856;2024-03-02T12:51:36;13.60;99.90
31207;DHT22;17834;52.992;8.856;2024-03-02T12:54:02;13.60;99.90
31207;DHT22;17834;52.992;8.856;2024-03-02T12:56:29;13.60;99.90
31207;DHT22;17834;52.992;8.856;2024-03-02T12:58:55;13.60;99.90
31207;DHT22;17834;52.992;8.856;2024-03-02T13:01:20;13.60;99.90
31207;DHT22;17834;52.992;8.856;2024-03-02T13:03:49;13.70;99.90
31207;DHT22;17834;52.992;8.856;2024-03-02T13:06:16;13.70;99.90
31207;DHT22;17834;52.992;8.856;2024-03-02T13:08:42;13.70;99.90
31207;DHT22;17834;52.992;8.856;2024-03-02T13:11:08;13.70;99.90
31207;DHT22;17834;52.992;8.856;2024-03-02T13:13:33;13.70;99.90
31207;DHT22;17834;52.992;8.856;2024-03-02T13:16:00;13.80;99.90
31207;DHT22;17834;52.992;8.856;2024-03-02T13:18:25;13.80;99.90
31207;DHT22;17834;52.992;8.856;2024-03-02T13:20:52;13.80;99.90
31207;DHT22;17834;52.992;8.856;2024-03-02T13:23:17;13.80;99.90
31207;DHT22;17834;52.992;8.856;2024-03-02T13:25:42;13.80;99.90
31207;DHT22;17834;52.992;8.856;2024-03-02T13:28:08;13.90;99.90
31207;DHT22;17834;52.992;8.856;2024-03-02T13:30:34;14.00;99.90
31207;DHT22;17834;52.992;8.856;2024-03-02T13:33:00;14.00;99.90
31207;DHT22;17834;52.992;8.856;2024-03-02T13:35:26;14.00;99.90
31207;DHT22;17834;52.992;8.856;2024-03-02T13:37:52;13.90;99.90
31207;DHT22;17834;52.992;8.856;2024-03-02T13:40:17;14.00;99.90
31207;DHT22;17834;52.992;8.856;2024-03-02T13:42:46;14.00;99.90
31207;DHT22;17834;52.992;8.856;2024-03-02T13:45:12;14.00;99.90
31207;DHT22;17834;52.992;8.856;2024-03-02T13:47:38;14.00;99.90
31207;DHT22;17834;52.992;8.856;2024-03-02T13:50:04;14.00;99.90
31207;DHT22;17834;52.992;8.856;2024-03-02T13:52:30;14.00;99.90
31207;DHT22;17834;52.992;8.856;2024-03-02T13:54:56;14.10;99.90
31207;DHT22;17834;52.992;8.856;2024-03-02T13:57:21;14.10;99.90
31207;DHT22;17834;52.992;8.856;2024-03-02T13:59:47;14.00;99.90
31207;DHT22;17834;52.992;8.856;2024-03-02T14:02:13;14.10;99.90
31207;DHT22;17834;52.992;8.856;2024-03-02T14:04:39;14.10;99.90
31207;DHT22;17834;52.992;8.856;2024-03-02T14:07:05;14.10;99.90
31207;DHT22;17834;52.992;8.856;2024-03-02T14:09:34;14.10;99.90
31207;DHT22;17834;52.992;8.856;2024-03-02T14:12:00;14.10;99.90
31207;DHT22;17834;52.992;8.856;2024-03-02T14:14:28;14.10;99.90
31207;DHT22;17834;52.992;8.856;2024-03-02T14:16:54;14.10;99.90
31207;DHT22;17834;52.992;8.856;2024-03-02T14:19:21;14.10;99.90
31207;DHT22;17834;52.992;8.856;2024-03-02T14:21:47;14.10;99.90
31207;DHT22;17834;52.992;8.856;2024-03-02T14:24:13;14.10;99.90
31207;DHT22;17834;52.992;8.856;2024-03-02T14:26:39;14.10;99.90
31207;DHT22;17834;52.992;8.856;2024-03-02T14:29:04;14.00;99.90
31207;DHT22;17834;52.992;8.856;2024-03-02T14:31:30;14.00;99.90
31207;DHT22;17834;52.992;8.856;2024-03-02T14:33:59;14.10;99.90
31207;DHT22;17834;52.992;8.856;2024-03-02T14:36:28;14.00;99.90
31207;DHT22;17834;52.992;8.856;2024-03-02T14:38:54;14.00;99.90
31207;DHT22;17834;52.992;8.856;2024-03-02T14:41:20;14.00;99.90
31207;DHT22;17834;52.992;8.856;2024-03-02T14:43:45;14.00;99.90
31207;DHT22;17834;52.992;8.856;2024-03-02T14:46:11;14.00;99.90
31207;DHT22;17834;52.992;8.856;2024-03-02T14:48:37;14.00;99.90
31207;DHT22;17834;52.992;8.856;2024-03-02T14:51:03;14.00;99.90
31207;DHT22;17834;52.992;8.856;2024-03-02T14:53:29;14.00;99.90
31207;DHT22;17834;52.992;8.856;2024-03-02T14:55:54;14.00;99.90
31207;DHT22;17834;52.992;8.856;2024-03-02T14:58:20;14.00;99.90
31207;DHT22;17834;52.992;8.856;2024-03-02T15:00:46;14.00;99.90
31207;DHT22;17834;52.992;8.856;2024-03-02T15:03:11;13.90;99.90
31207;DHT22;17834;52.992;8.856;2024-03-02T15:05:37;13.90;99.90
31207;DHT22;17834;52.992;8.856;2024-03-02T15:08:04;13.80;99.90
31207;DHT22;17834;52.992;8.856;2024-03-02T15:10:30;13.80;99.90
31207;DHT22;17834;52.992;8.856;2024-03-02T15:12:56;13.80;99.90
31207;DHT22;17834;52.992;8.856;2024-03-02T15:15:21;13.80;99.90
31207;DHT22;17834;52.992;8.856;2024-03-02T15:17:47;13.80;99.90
31207;DHT22;17834;52.992;8.856;2024-03-02T15:20:12;13.80;99.90
31207;DHT22;17834;52.992;8.856;2024-03-02T15:22:38;13.80;99.90
31207;DHT22;17834;52.992;8.856;2024-03-02T15:25:03;13.90;99.90
31207;DHT22;17834;52.992;8.856;2024-03-02T15:27:29;13.80;99.90
31207;DHT22;17834;52.992;8.856;2024-03-02T15:29:55;13.80;99.90
31207;DHT22;17834;52.992;8.856;2024-03-02T15:32:22;13.80;99.90
31207;DHT22;17834;52.992;8.856;2024-03-02T15:34:48;13.80;99.90
31207;DHT22;17834;52.992;8.856;2024-03-02T15:37:13;13.70;99.90
31207;DHT22;17834;52.992;8.856;2024-03-02T15:39:39;13.70;99.90
31207;DHT22;17834;52.992;8.856;2024-03-02T15:42:05;13.60;99.90
31207;DHT22;17834;52.992;8.856;2024-03-02T15:44:31;13.60;99.90